sensor_id;sensor_type;location;lat;lon;timestamp;P1;durP1;ratioP1;P2;durP2;ratioP2
6193;SDS011;3130;41.564;23.280;2023-12-20T00:02:23;22.00;;;13.13;;
6193;SDS011;3130;41.564;23.280;2023-12-20T00:04:50;22.37;;;13.77;;
6193;SDS011;3130;41.564;23.280;2023-12-20T00:07:17;23.40;;;13.73;;
6193;SDS011;3130;41.564;23.280;2023-12-20T00:09:44;23.00;;;13.30;;
6193;SDS011;3130;41.564;23.280;2023-12-20T00:12:12;20.37;;;13.77;;
6193;SDS011;3130;41.564;23.280;2023-12-20T00:14:41;18.97;;;13.30;;
6193;SDS011;3130;41.564;23.280;2023-12-20T00:17:08;21.63;;;12.97;;
6193;SDS011;3130;41.564;23.280;2023-12-20T00:19:35;18.67;;;14.07;;
6193;SDS011;3130;41.564;23.280;2023-12-20T00:22:02;21.03;;;11.80;;
6193;SDS011;3130;41.564;23.280;2023-12-20T00:24:30;18.10;;;11.57;;
6193;SDS011;3130;41.564;23.280;2023-12-20T00:26:57;15.53;;;10.67;;
6193;SDS011;3130;41.564;23.280;2023-12-20T00:29:25;15.40;;;8.93;;
6193;SDS011;3130;41.564;23.280;2023-12-20T00:31:53;16.30;;;9.30;;
6193;SDS011;3130;41.564;23.280;2023-12-20T00:34:21;14.93;;;9.67;;
6193;SDS011;3130;41.564;23.280;2023-12-20T00:36:48;13.97;;;9.20;;
6193;SDS011;3130;41.564;23.280;2023-12-20T00:39:15;15.70;;;9.60;;
6193;SDS011;3130;41.564;23.280;2023-12-20T00:41:42;16.77;;;8.50;;
6193;SDS011;3130;41.564;23.280;2023-12-20T00:44:09;12.20;;;8.23;;
6193;SDS011;3130;41.564;23.280;2023-12-20T00:46:37;15.47;;;9.33;;
6193;SDS011;3130;41.564;23.280;2023-12-20T00:49:05;13.70;;;7.87;;
6193;SDS011;3130;41.564;23.280;2023-12-20T00:51:33;15.03;;;9.23;;
6193;SDS011;3130;41.564;23.280;2023-12-20T00:54:00;15.73;;;9.17;;
6193;SDS011;3130;41.564;23.280;2023-12-20T00:56:27;12.77;;;8.70;;
6193;SDS011;3130;41.564;23.280;2023-12-20T00:58:54;14.17;;;8.80;;
6193;SDS011;3130;41.564;23.280;2023-12-20T01:01:22;13.73;;;8.27;;
6193;SDS011;3130;41.564;23.280;2023-12-20T01:03:49;16.97;;;8.83;;
6193;SDS011;3130;41.564;23.280;2023-12-20T01:06:18;12.60;;;9.00;;
6193;SDS011;3130;41.564;23.280;2023-12-20T01:08:45;15.37;;;8.80;;
6193;SDS011;3130;41.564;23.280;2023-12-20T01:11:12;13.17;;;8.17;;
6193;SDS011;3130;41.564;23.280;2023-12-20T01:13:40;13.60;;;8.50;;
6193;SDS011;3130;41.564;23.280;2023-12-20T01:16:08;14.10;;;8.93;;
6193;SDS011;3130;41.564;23.280;2023-12-20T01:18:37;12.47;;;7.47;;
6193;SDS011;3130;41.564;23.280;2023-12-20T01:21:04;11.40;;;7.93;;
6193;SDS011;3130;41.564;23.280;2023-12-20T01:23:33;8.97;;;7.40;;
6193;SDS011;3130;41.564;23.280;2023-12-20T01:26:01;12.10;;;7.33;;
6193;SDS011;3130;41.564;23.280;2023-12-20T01:28:30;14.20;;;8.10;;
6193;SDS011;3130;41.564;23.280;2023-12-20T01:30:57;14.83;;;7.00;;
6193;SDS011;3130;41.564;23.280;2023-12-20T01:33:24;12.97;;;7.47;;
6193;SDS011;3130;41.564;23.280;2023-12-20T01:35:51;17.03;;;10.73;;
6193;SDS011;3130;41.564;23.280;2023-12-20T01:38:19;26.23;;;14.80;;
6193;SDS011;3130;41.564;23.280;2023-12-20T01:40:47;31.60;;;19.20;;
6193;SDS011;3130;41.564;23.280;2023-12-20T01:43:15;34.73;;;18.60;;
6193;SDS011;3130;41.564;23.280;2023-12-20T01:45:42;25.67;;;16.93;;
6193;SDS011;3130;41.564;23.280;2023-12-20T01:48:09;26.93;;;17.43;;
6193;SDS011;3130;41.564;23.280;2023-12-20T01:50:37;31.77;;;20.63;;
6193;SDS011;3130;41.564;23.280;2023-12-20T01:53:05;30.13;;;18.03;;
6193;SDS011;3130;41.564;23.280;2023-12-20T01:55:34;29.20;;;17.33;;
6193;SDS011;3130;41.564;23.280;2023-12-20T01:58:04;26.83;;;17.13;;
6193;SDS011;3130;41.564;23.280;2023-12-20T02:00:32;23.50;;;15.30;;
6193;SDS011;3130;41.564;23.280;2023-12-20T02:03:00;25.40;;;14.23;;
6193;SDS011;3130;41.564;23.280;2023-12-20T02:05:29;20.67;;;14.27;;
6193;SDS011;3130;41.564;23.280;2023-12-20T02:07:56;22.20;;;15.00;;
6193;SDS011;3130;41.564;23.280;2023-12-20T02:10:23;22.90;;;13.37;;
6193;SDS011;3130;41.564;23.280;2023-12-20T02:12:51;21.27;;;12.47;;
6193;SDS011;3130;41.564;23.280;2023-12-20T02:15:20;17.97;;;9.67;;
6193;SDS011;3130;41.564;23.280;2023-12-20T02:17:47;16.53;;;9.70;;
6193;SDS011;3130;41.564;23.280;2023-12-20T02:20:15;15.43;;;10.73;;
6193;SDS011;3130;41.564;23.280;2023-12-20T02:22:44;13.63;;;8.27;;
6193;SDS011;3130;41.564;23.280;2023-12-20T02:25:11;14.73;;;9.80;;
6193;SDS011;3130;41.564;23.280;2023-12-20T02:27:39;15.57;;;10.17;;
6193;SDS011;3130;41.564;23.280;2023-12-20T02:30:07;13.90;;;8.63;;
6193;SDS011;3130;41.564;23.280;2023-12-20T02:32:35;14.73;;;8.97;;
6193;SDS011;3130;41.564;23.280;2023-12-20T02:35:02;14.23;;;8.97;;
6193;SDS011;3130;41.564;23.280;2023-12-20T02:37:30;15.70;;;9.30;;
6193;SDS011;3130;41.564;23.280;2023-12-20T02:39:58;14.33;;;7.53;;
6193;SDS011;3130;41.564;23.280;2023-12-20T02:42:25;14.90;;;8.97;;
6193;SDS011;3130;41.564;23.280;2023-12-20T02:44:53;16.47;;;9.53;;
6193;SDS011;3130;41.564;23.280;2023-12-20T02:47:20;13.73;;;8.70;;
6193;SDS011;3130;41.564;23.280;2023-12-20T02:49:47;12.80;;;8.10;;
6193;SDS011;3130;41.564;23.280;2023-12-20T02:52:14;11.70;;;7.47;;
6193;SDS011;3130;41.564;23.280;2023-12-20T02:54:42;20.67;;;9.60;;
6193;SDS011;3130;41.564;23.280;2023-12-20T02:57:10;13.03;;;9.40;;
6193;SDS011;3130;41.564;23.280;2023-12-20T02:59:37;12.97;;;8.47;;
6193;SDS011;3130;41.564;23.280;2023-12-20T03:02:05;12.90;;;8.43;;
6193;SDS011;3130;41.564;23.280;2023-12-20T03:04:32;13.57;;;9.07;;
6193;SDS011;3130;41.564;23.280;2023-12-20T03:06:59;14.93;;;9.90;;
6193;SDS011;3130;41.564;23.280;2023-12-20T03:09:26;16.17;;;10.30;;
6193;SDS011;3130;41.564;23.280;2023-12-20T03:11:53;21.63;;;11.33;;
6193;SDS011;3130;41.564;23.280;2023-12-20T03:14:22;26.77;;;14.30;;
6193;SDS011;3130;41.564;23.280;2023-12-20T03:16:49;21.93;;;13.33;;
6193;SDS011;3130;41.564;23.280;2023-12-20T03:19:17;21.73;;;11.87;;
6193;SDS011;3130;41.564;23.280;2023-12-20T03:21:45;13.83;;;9.60;;
6193;SDS011;3130;41.564;23.280;2023-12-20T03:24:12;18.17;;;11.77;;
6193;SDS011;3130;41.564;23.280;2023-12-20T03:26:39;19.70;;;11.30;;
6193;SDS011;3130;41.564;23.280;2023-12-20T03:29:07;15.93;;;9.43;;
6193;SDS011;3130;41.564;23.280;2023-12-20T03:31:35;20.67;;;10.30;;
6193;SDS011;3130;41.564;23.280;2023-12-20T03:34:02;19.43;;;9.90;;
6193;SDS011;3130;41.564;23.280;2023-12-20T03:36:30;20.47;;;9.93;;
6193;SDS011;3130;41.564;23.280;2023-12-20T03:38:57;16.20;;;10.50;;
6193;SDS011;3130;41.564;23.280;2023-12-20T03:41:24;21.37;;;11.67;;
6193;SDS011;3130;41.564;23.280;2023-12-20T03:43:51;13.87;;;9.47;;
6193;SDS011;3130;41.564;23.280;2023-12-20T03:46:18;19.03;;;12.50;;
6193;SDS011;3130;41.564;23.280;2023-12-20T03:48:47;20.43;;;12.27;;
6193;SDS011;3130;41.564;23.280;2023-12-20T03:51:15;20.97;;;10.20;;
6193;SDS011;3130;41.564;23.280;2023-12-20T03:53:42;15.63;;;10.33;;
6193;SDS011;3130;41.564;23.280;2023-12-20T03:56:09;15.23;;;9.10;;
6193;SDS011;3130;41.564;23.280;2023-12-20T03:58:36;15.03;;;9.53;;
6193;SDS011;3130;41.564;23.280;2023-12-20T04:01:06;14.63;;;10.10;;
6193;SDS011;3130;41.564;23.280;2023-12-20T04:03:37;15.20;;;9.97;;
6193;SDS011;3130;41.564;23.280;2023-12-20T04:06:06;13.67;;;9.20;;
6193;SDS011;3130;41.564;23.280;2023-12-20T04:08:34;16.70;;;10.53;;
6193;SDS011;3130;41.564;23.280;2023-12-20T04:11:01;18.10;;;9.50;;
6193;SDS011;3130;41.564;23.280;2023-12-20T04:13:28;18.00;;;10.40;;
6193;SDS011;3130;41.564;23.280;2023-12-20T04:15:55;15.60;;;9.97;;
6193;SDS011;3130;41.564;23.280;2023-12-20T04:18:23;17.30;;;10.07;;
6193;SDS011;3130;41.564;23.280;2023-12-20T04:20:50;19.97;;;11.10;;
6193;SDS011;3130;41.564;23.280;2023-12-20T04:23:19;17.77;;;12.93;;
6193;SDS011;3130;41.564;23.280;2023-12-20T04:25:46;15.70;;;10.37;;
6193;SDS011;3130;41.564;23.280;2023-12-20T04:28:14;17.83;;;10.73;;
6193;SDS011;3130;41.564;23.280;2023-12-20T04:30:41;20.63;;;10.23;;
6193;SDS011;3130;41.564;23.280;2023-12-20T04:33:09;18.90;;;11.80;;
6193;SDS011;3130;41.564;23.280;2023-12-20T04:35:36;19.03;;;11.23;;
6193;SDS011;3130;41.564;23.280;2023-12-20T04:38:06;20.93;;;11.37;;
6193;SDS011;3130;41.564;23.280;2023-12-20T04:40:34;13.17;;;9.40;;
6193;SDS011;3130;41.564;23.280;2023-12-20T04:43:02;19.47;;;11.03;;
6193;SDS011;3130;41.564;23.280;2023-12-20T04:45:29;14.67;;;9.73;;
6193;SDS011;3130;41.564;23.280;2023-12-20T04:47:56;15.13;;;8.60;;
6193;SDS011;3130;41.564;23.280;2023-12-20T04:50:23;12.30;;;8.60;;
6193;SDS011;3130;41.564;23.280;2023-12-20T04:52:51;13.83;;;8.97;;
6193;SDS011;3130;41.564;23.280;2023-12-20T04:55:19;14.07;;;7.80;;
6193;SDS011;3130;41.564;23.280;2023-12-20T04:57:48;18.23;;;12.57;;
6193;SDS011;3130;41.564;23.280;2023-12-20T05:00:15;16.27;;;12.37;;
6193;SDS011;3130;41.564;23.280;2023-12-20T05:02:43;17.03;;;10.53;;
6193;SDS011;3130;41.564;23.280;2023-12-20T05:05:10;16.87;;;10.73;;
6193;SDS011;3130;41.564;23.280;2023-12-20T05:07:37;15.60;;;8.90;;
6193;SDS011;3130;41.564;23.280;2023-12-20T05:10:05;11.33;;;8.53;;
6193;SDS011;3130;41.564;23.280;2023-12-20T05:12:34;17.43;;;10.00;;
6193;SDS011;3130;41.564;23.280;2023-12-20T05:15:03;19.67;;;10.97;;
6193;SDS011;3130;41.564;23.280;2023-12-20T05:17:31;21.57;;;11.37;;
6193;SDS011;3130;41.564;23.280;2023-12-20T05:19:58;26.00;;;11.87;;
6193;SDS011;3130;41.564;23.280;2023-12-20T05:22:25;29.23;;;15.00;;
6193;SDS011;3130;41.564;23.280;2023-12-20T05:24:53;40.03;;;24.13;;
6193;SDS011;3130;41.564;23.280;2023-12-20T05:27:21;49.60;;;28.97;;
6193;SDS011;3130;41.564;23.280;2023-12-20T05:29:48;56.37;;;33.23;;
6193;SDS011;3130;41.564;23.280;2023-12-20T05:32:17;50.37;;;31.13;;
6193;SDS011;3130;41.564;23.280;2023-12-20T05:34:44;52.20;;;30.17;;
6193;SDS011;3130;41.564;23.280;2023-12-20T05:37:12;60.10;;;36.97;;
6193;SDS011;3130;41.564;23.280;2023-12-20T05:39:39;48.33;;;27.53;;
6193;SDS011;3130;41.564;23.280;2023-12-20T05:42:06;39.07;;;24.80;;
6193;SDS011;3130;41.564;23.280;2023-12-20T05:44:33;46.30;;;25.07;;
6193;SDS011;3130;41.564;23.280;2023-12-20T05:47:01;53.70;;;28.90;;
6193;SDS011;3130;41.564;23.280;2023-12-20T05:49:30;48.03;;;29.90;;
6193;SDS011;3130;41.564;23.280;2023-12-20T05:51:58;52.23;;;31.53;;
6193;SDS011;3130;41.564;23.280;2023-12-20T05:54:25;56.87;;;32.33;;
6193;SDS011;3130;41.564;23.280;2023-12-20T05:56:52;41.67;;;28.83;;
6193;SDS011;3130;41.564;23.280;2023-12-20T05:59:20;49.00;;;29.03;;
6193;SDS011;3130;41.564;23.280;2023-12-20T06:01:47;45.60;;;27.83;;
6193;SDS011;3130;41.564;23.280;2023-12-20T06:04:14;54.63;;;31.73;;
6193;SDS011;3130;41.564;23.280;2023-12-20T06:06:43;54.90;;;34.10;;
6193;SDS011;3130;41.564;23.280;2023-12-20T06:09:11;56.80;;;34.10;;
6193;SDS011;3130;41.564;23.280;2023-12-20T06:11:38;55.60;;;33.50;;
6193;SDS011;3130;41.564;23.280;2023-12-20T06:14:06;57.33;;;34.73;;
6193;SDS011;3130;41.564;23.280;2023-12-20T06:16:33;59.60;;;35.43;;
6193;SDS011;3130;41.564;23.280;2023-12-20T06:19:01;60.33;;;36.83;;
6193;SDS011;3130;41.564;23.280;2023-12-20T06:21:28;63.30;;;37.80;;
6193;SDS011;3130;41.564;23.280;2023-12-20T06:23:58;59.67;;;36.57;;
6193;SDS011;3130;41.564;23.280;2023-12-20T06:26:25;59.17;;;35.73;;
6193;SDS011;3130;41.564;23.280;2023-12-20T06:28:52;58.40;;;34.37;;
6193;SDS011;3130;41.564;23.280;2023-12-20T06:31:20;53.30;;;35.27;;
6193;SDS011;3130;41.564;23.280;2023-12-20T06:33:47;63.47;;;40.40;;
6193;SDS011;3130;41.564;23.280;2023-12-20T06:36:22;67.53;;;39.93;;
6193;SDS011;3130;41.564;23.280;2023-12-20T06:38:50;73.27;;;41.10;;
6193;SDS011;3130;41.564;23.280;2023-12-20T06:41:18;73.57;;;42.10;;
6193;SDS011;3130;41.564;23.280;2023-12-20T06:43:45;67.20;;;39.93;;
6193;SDS011;3130;41.564;23.280;2023-12-20T06:46:13;59.37;;;32.23;;
6193;SDS011;3130;41.564;23.280;2023-12-20T06:48:40;60.20;;;36.77;;
6193;SDS011;3130;41.564;23.280;2023-12-20T06:51:10;55.90;;;36.73;;
6193;SDS011;3130;41.564;23.280;2023-12-20T06:53:38;69.37;;;38.80;;
6193;SDS011;3130;41.564;23.280;2023-12-20T06:56:06;66.13;;;40.13;;
6193;SDS011;3130;41.564;23.280;2023-12-20T06:58:35;66.10;;;40.20;;
6193;SDS011;3130;41.564;23.280;2023-12-20T07:01:03;64.47;;;40.67;;
6193;SDS011;3130;41.564;23.280;2023-12-20T07:03:31;74.27;;;41.70;;
6193;SDS011;3130;41.564;23.280;2023-12-20T07:05:58;71.03;;;42.00;;
6193;SDS011;3130;41.564;23.280;2023-12-20T07:08:25;75.60;;;43.50;;
6193;SDS011;3130;41.564;23.280;2023-12-20T07:10:53;82.47;;;44.83;;
6193;SDS011;3130;41.564;23.280;2023-12-20T07:13:20;73.10;;;43.60;;
6193;SDS011;3130;41.564;23.280;2023-12-20T07:15:49;64.80;;;39.20;;
6193;SDS011;3130;41.564;23.280;2023-12-20T07:18:16;60.83;;;39.43;;
6193;SDS011;3130;41.564;23.280;2023-12-20T07:20:43;59.13;;;35.27;;
6193;SDS011;3130;41.564;23.280;2023-12-20T07:23:11;58.27;;;34.03;;
6193;SDS011;3130;41.564;23.280;2023-12-20T07:25:38;58.27;;;33.97;;
6193;SDS011;3130;41.564;23.280;2023-12-20T07:28:05;76.07;;;43.77;;
6193;SDS011;3130;41.564;23.280;2023-12-20T07:30:32;282.20;;;126.40;;
6193;SDS011;3130;41.564;23.280;2023-12-20T07:33:01;78.47;;;50.10;;
6193;SDS011;3130;41.564;23.280;2023-12-20T07:35:29;85.50;;;45.57;;
6193;SDS011;3130;41.564;23.280;2023-12-20T07:37:56;53.07;;;34.33;;
6193;SDS011;3130;41.564;23.280;2023-12-20T07:40:23;46.47;;;32.50;;
6193;SDS011;3130;41.564;23.280;2023-12-20T07:42:51;42.83;;;26.60;;
6193;SDS011;3130;41.564;23.280;2023-12-20T07:45:18;35.90;;;24.20;;
6193;SDS011;3130;41.564;23.280;2023-12-20T07:47:45;35.53;;;24.43;;
6193;SDS011;3130;41.564;23.280;2023-12-20T07:50:14;37.93;;;27.77;;
6193;SDS011;3130;41.564;23.280;2023-12-20T07:52:41;31.20;;;22.13;;
6193;SDS011;3130;41.564;23.280;2023-12-20T07:55:08;30.80;;;21.70;;
6193;SDS011;3130;41.564;23.280;2023-12-20T07:57:36;34.27;;;20.80;;
6193;SDS011;3130;41.564;23.280;2023-12-20T08:00:03;37.33;;;24.97;;
6193;SDS011;3130;41.564;23.280;2023-12-20T08:02:32;38.90;;;28.03;;
6193;SDS011;3130;41.564;23.280;2023-12-20T08:04:59;44.73;;;30.40;;
6193;SDS011;3130;41.564;23.280;2023-12-20T08:07:28;47.13;;;34.13;;
6193;SDS011;3130;41.564;23.280;2023-12-20T08:09:55;40.03;;;27.47;;
6193;SDS011;3130;41.564;23.280;2023-12-20T08:12:22;36.83;;;27.47;;
6193;SDS011;3130;41.564;23.280;2023-12-20T08:14:52;33.17;;;24.60;;
6193;SDS011;3130;41.564;23.280;2023-12-20T08:17:20;38.80;;;27.10;;
6193;SDS011;3130;41.564;23.280;2023-12-20T08:19:48;38.03;;;27.40;;
6193;SDS011;3130;41.564;23.280;2023-12-20T08:22:15;39.47;;;30.53;;
6193;SDS011;3130;41.564;23.280;2023-12-20T08:24:44;41.53;;;28.97;;
6193;SDS011;3130;41.564;23.280;2023-12-20T08:27:10;41.93;;;30.87;;
6193;SDS011;3130;41.564;23.280;2023-12-20T08:29:37;44.67;;;35.33;;
6193;SDS011;3130;41.564;23.280;2023-12-20T08:32:05;40.57;;;32.23;;
6193;SDS011;3130;41.564;23.280;2023-12-20T08:34:32;41.63;;;30.23;;
6193;SDS011;3130;41.564;23.280;2023-12-20T08:36:59;48.43;;;33.83;;
6193;SDS011;3130;41.564;23.280;2023-12-20T08:39:26;47.97;;;31.73;;
6193;SDS011;3130;41.564;23.280;2023-12-20T08:41:56;46.33;;;29.10;;
6193;SDS011;3130;41.564;23.280;2023-12-20T08:44:23;45.80;;;27.87;;
6193;SDS011;3130;41.564;23.280;2023-12-20T08:46:50;47.47;;;29.47;;
6193;SDS011;3130;41.564;23.280;2023-12-20T08:49:17;44.97;;;29.47;;
6193;SDS011;3130;41.564;23.280;2023-12-20T08:51:45;40.10;;;26.60;;
6193;SDS011;3130;41.564;23.280;2023-12-20T08:54:12;41.83;;;27.93;;
6193;SDS011;3130;41.564;23.280;2023-12-20T08:56:39;43.40;;;29.83;;
6193;SDS011;3130;41.564;23.280;2023-12-20T08:59:08;40.90;;;28.07;;
6193;SDS011;3130;41.564;23.280;2023-12-20T09:01:35;46.97;;;31.23;;
6193;SDS011;3130;41.564;23.280;2023-12-20T09:04:03;49.57;;;30.70;;
6193;SDS011;3130;41.564;23.280;2023-12-20T09:06:31;50.00;;;31.23;;
6193;SDS011;3130;41.564;23.280;2023-12-20T09:08:58;46.60;;;31.80;;
6193;SDS011;3130;41.564;23.280;2023-12-20T09:11:31;44.33;;;29.13;;
6193;SDS011;3130;41.564;23.280;2023-12-20T09:13:58;39.43;;;27.60;;
6193;SDS011;3130;41.564;23.280;2023-12-20T09:16:27;47.83;;;28.17;;
6193;SDS011;3130;41.564;23.280;2023-12-20T09:18:54;42.23;;;28.07;;
6193;SDS011;3130;41.564;23.280;2023-12-20T09:21:22;47.50;;;30.13;;
6193;SDS011;3130;41.564;23.280;2023-12-20T09:23:49;40.93;;;29.70;;
6193;SDS011;3130;41.564;23.280;2023-12-20T09:26:16;47.67;;;31.33;;
6193;SDS011;3130;41.564;23.280;2023-12-20T09:28:44;52.10;;;33.33;;
6193;SDS011;3130;41.564;23.280;2023-12-20T09:31:12;54.07;;;34.77;;
6193;SDS011;3130;41.564;23.280;2023-12-20T09:33:41;58.67;;;35.10;;
6193;SDS011;3130;41.564;23.280;2023-12-20T09:36:08;52.93;;;34.10;;
6193;SDS011;3130;41.564;23.280;2023-12-20T09:38:35;42.97;;;28.43;;
6193;SDS011;3130;41.564;23.280;2023-12-20T09:41:11;42.97;;;28.40;;
6193;SDS011;3130;41.564;23.280;2023-12-20T09:43:39;44.90;;;28.27;;
6193;SDS011;3130;41.564;23.280;2023-12-20T09:46:13;47.17;;;32.33;;
6193;SDS011;3130;41.564;23.280;2023-12-20T09:48:45;41.83;;;29.07;;
6193;SDS011;3130;41.564;23.280;2023-12-20T09:51:13;44.60;;;30.27;;
6193;SDS011;3130;41.564;23.280;2023-12-20T09:53:42;42.83;;;28.20;;
6193;SDS011;3130;41.564;23.280;2023-12-20T09:56:10;46.93;;;28.50;;
6193;SDS011;3130;41.564;23.280;2023-12-20T09:58:38;38.53;;;24.67;;
6193;SDS011;3130;41.564;23.280;2023-12-20T10:01:06;46.60;;;26.13;;
6193;SDS011;3130;41.564;23.280;2023-12-20T10:03:34;43.40;;;28.13;;
6193;SDS011;3130;41.564;23.280;2023-12-20T10:06:03;39.33;;;26.07;;
6193;SDS011;3130;41.564;23.280;2023-12-20T10:08:31;40.30;;;25.87;;
6193;SDS011;3130;41.564;23.280;2023-12-20T10:10:59;42.37;;;28.27;;
6193;SDS011;3130;41.564;23.280;2023-12-20T10:13:29;40.03;;;27.10;;
6193;SDS011;3130;41.564;23.280;2023-12-20T10:16:05;40.80;;;28.90;;
6193;SDS011;3130;41.564;23.280;2023-12-20T10:18:33;41.00;;;27.07;;
6193;SDS011;3130;41.564;23.280;2023-12-20T10:21:02;45.07;;;32.17;;
6193;SDS011;3130;41.564;23.280;2023-12-20T10:23:30;42.80;;;30.10;;
6193;SDS011;3130;41.564;23.280;2023-12-20T10:25:58;41.93;;;28.90;;
6193;SDS011;3130;41.564;23.280;2023-12-20T10:28:26;54.20;;;30.60;;
6193;SDS011;3130;41.564;23.280;2023-12-20T10:30:59;42.87;;;28.27;;
6193;SDS011;3130;41.564;23.280;2023-12-20T10:33:27;46.37;;;30.37;;
6193;SDS011;3130;41.564;23.280;2023-12-20T10:35:55;45.70;;;29.30;;
6193;SDS011;3130;41.564;23.280;2023-12-20T10:38:24;45.80;;;30.73;;
6193;SDS011;3130;41.564;23.280;2023-12-20T10:40:52;48.27;;;31.17;;
6193;SDS011;3130;41.564;23.280;2023-12-20T10:43:24;39.03;;;27.97;;
6193;SDS011;3130;41.564;23.280;2023-12-20T10:45:53;40.63;;;28.87;;
6193;SDS011;3130;41.564;23.280;2023-12-20T10:48:21;44.27;;;29.00;;
6193;SDS011;3130;41.564;23.280;2023-12-20T10:50:54;43.03;;;29.03;;
6193;SDS011;3130;41.564;23.280;2023-12-20T10:53:24;44.73;;;28.20;;
6193;SDS011;3130;41.564;23.280;2023-12-20T10:55:52;43.90;;;29.60;;
6193;SDS011;3130;41.564;23.280;2023-12-20T10:58:22;49.87;;;31.60;;
6193;SDS011;3130;41.564;23.280;2023-12-20T11:00:53;45.10;;;28.73;;
6193;SDS011;3130;41.564;23.280;2023-12-20T11:03:26;43.23;;;29.53;;
6193;SDS011;3130;41.564;23.280;2023-12-20T11:05:59;43.03;;;29.60;;
6193;SDS011;3130;41.564;23.280;2023-12-20T11:08:33;43.50;;;30.80;;
6193;SDS011;3130;41.564;23.280;2023-12-20T11:11:06;44.37;;;29.80;;
6193;SDS011;3130;41.564;23.280;2023-12-20T11:13:35;47.57;;;31.57;;
6193;SDS011;3130;41.564;23.280;2023-12-20T11:16:07;47.00;;;30.50;;
6193;SDS011;3130;41.564;23.280;2023-12-20T11:18:35;44.67;;;30.33;;
6193;SDS011;3130;41.564;23.280;2023-12-20T11:21:02;46.50;;;33.63;;
6193;SDS011;3130;41.564;23.280;2023-12-20T11:23:32;47.17;;;33.27;;
6193;SDS011;3130;41.564;23.280;2023-12-20T11:26:01;47.83;;;34.77;;
6193;SDS011;3130;41.564;23.280;2023-12-20T11:28:29;47.13;;;30.87;;
6193;SDS011;3130;41.564;23.280;2023-12-20T11:30:57;48.07;;;32.63;;
6193;SDS011;3130;41.564;23.280;2023-12-20T11:33:29;52.20;;;34.57;;
6193;SDS011;3130;41.564;23.280;2023-12-20T11:35:58;50.47;;;35.27;;
6193;SDS011;3130;41.564;23.280;2023-12-20T11:38:26;45.30;;;31.50;;
6193;SDS011;3130;41.564;23.280;2023-12-20T11:40:54;55.17;;;35.13;;
6193;SDS011;3130;41.564;23.280;2023-12-20T11:43:31;46.27;;;33.47;;
6193;SDS011;3130;41.564;23.280;2023-12-20T11:46:02;39.67;;;27.27;;
6193;SDS011;3130;41.564;23.280;2023-12-20T11:48:31;41.53;;;29.60;;
6193;SDS011;3130;41.564;23.280;2023-12-20T11:50:59;44.87;;;31.13;;
6193;SDS011;3130;41.564;23.280;2023-12-20T11:53:26;41.40;;;29.67;;
6193;SDS011;3130;41.564;23.280;2023-12-20T11:55:55;40.67;;;28.77;;
6193;SDS011;3130;41.564;23.280;2023-12-20T11:58:23;49.13;;;30.23;;
6193;SDS011;3130;41.564;23.280;2023-12-20T12:00:50;40.33;;;28.07;;
6193;SDS011;3130;41.564;23.280;2023-12-20T12:03:18;41.20;;;27.63;;
6193;SDS011;3130;41.564;23.280;2023-12-20T12:05:46;40.47;;;28.70;;
6193;SDS011;3130;41.564;23.280;2023-12-20T12:08:14;42.57;;;29.43;;
6193;SDS011;3130;41.564;23.280;2023-12-20T12:10:41;39.00;;;26.03;;
6193;SDS011;3130;41.564;23.280;2023-12-20T12:13:09;34.40;;;23.97;;
6193;SDS011;3130;41.564;23.280;2023-12-20T12:15:39;36.67;;;24.47;;
6193;SDS011;3130;41.564;23.280;2023-12-20T12:18:08;41.17;;;25.63;;
6193;SDS011;3130;41.564;23.280;2023-12-20T12:20:35;37.87;;;24.37;;
6193;SDS011;3130;41.564;23.280;2023-12-20T12:23:03;36.20;;;27.43;;
6193;SDS011;3130;41.564;23.280;2023-12-20T12:25:32;40.13;;;26.53;;
6193;SDS011;3130;41.564;23.280;2023-12-20T12:28:01;43.03;;;29.80;;
6193;SDS011;3130;41.564;23.280;2023-12-20T12:30:31;43.27;;;29.63;;
6193;SDS011;3130;41.564;23.280;2023-12-20T12:32:57;48.13;;;32.57;;
6193;SDS011;3130;41.564;23.280;2023-12-20T12:35:25;52.87;;;34.07;;
6193;SDS011;3130;41.564;23.280;2023-12-20T12:37:52;50.97;;;32.90;;
6193;SDS011;3130;41.564;23.280;2023-12-20T12:40:20;42.20;;;28.97;;
6193;SDS011;3130;41.564;23.280;2023-12-20T12:42:47;41.30;;;27.27;;
6193;SDS011;3130;41.564;23.280;2023-12-20T12:45:15;41.33;;;28.00;;
6193;SDS011;3130;41.564;23.280;2023-12-20T12:47:53;41.83;;;26.33;;
6193;SDS011;3130;41.564;23.280;2023-12-20T12:50:45;37.60;;;26.30;;
6193;SDS011;3130;41.564;23.280;2023-12-20T12:53:17;38.93;;;26.43;;
6193;SDS011;3130;41.564;23.280;2023-12-20T12:55:44;39.87;;;28.43;;
6193;SDS011;3130;41.564;23.280;2023-12-20T12:58:16;39.17;;;27.73;;
6193;SDS011;3130;41.564;23.280;2023-12-20T13:00:56;45.20;;;28.83;;
6193;SDS011;3130;41.564;23.280;2023-12-20T13:03:32;45.97;;;29.00;;
6193;SDS011;3130;41.564;23.280;2023-12-20T13:06:00;36.80;;;27.60;;
6193;SDS011;3130;41.564;23.280;2023-12-20T13:08:31;40.07;;;27.40;;
6193;SDS011;3130;41.564;23.280;2023-12-20T13:11:01;41.77;;;29.30;;
6193;SDS011;3130;41.564;23.280;2023-12-20T13:13:38;43.63;;;28.27;;
6193;SDS011;3130;41.564;23.280;2023-12-20T13:16:08;48.50;;;33.57;;
6193;SDS011;3130;41.564;23.280;2023-12-20T13:18:38;42.80;;;34.13;;
6193;SDS011;3130;41.564;23.280;2023-12-20T13:21:07;49.10;;;32.23;;
6193;SDS011;3130;41.564;23.280;2023-12-20T13:23:46;46.77;;;31.07;;
6193;SDS011;3130;41.564;23.280;2023-12-20T13:26:27;40.33;;;28.70;;
6193;SDS011;3130;41.564;23.280;2023-12-20T13:28:54;40.23;;;28.67;;
6193;SDS011;3130;41.564;23.280;2023-12-20T13:31:24;44.13;;;28.20;;
6193;SDS011;3130;41.564;23.280;2023-12-20T13:33:53;47.43;;;29.20;;
6193;SDS011;3130;41.564;23.280;2023-12-20T13:36:20;45.83;;;30.13;;
6193;SDS011;3130;41.564;23.280;2023-12-20T13:38:48;52.10;;;31.40;;
6193;SDS011;3130;41.564;23.280;2023-12-20T13:41:15;53.50;;;33.17;;
6193;SDS011;3130;41.564;23.280;2023-12-20T13:43:43;54.47;;;34.50;;
6193;SDS011;3130;41.564;23.280;2023-12-20T13:46:10;51.97;;;35.53;;
6193;SDS011;3130;41.564;23.280;2023-12-20T13:48:39;54.90;;;32.90;;
6193;SDS011;3130;41.564;23.280;2023-12-20T13:51:08;49.43;;;33.77;;
6193;SDS011;3130;41.564;23.280;2023-12-20T13:53:35;53.27;;;31.20;;
6193;SDS011;3130;41.564;23.280;2023-12-20T13:56:04;46.77;;;30.03;;
6193;SDS011;3130;41.564;23.280;2023-12-20T13:58:31;50.17;;;31.00;;
6193;SDS011;3130;41.564;23.280;2023-12-20T14:00:58;40.23;;;28.90;;
6193;SDS011;3130;41.564;23.280;2023-12-20T14:03:26;40.70;;;27.40;;
6193;SDS011;3130;41.564;23.280;2023-12-20T14:05:53;51.97;;;31.07;;
6193;SDS011;3130;41.564;23.280;2023-12-20T14:08:22;45.20;;;28.03;;
6193;SDS011;3130;41.564;23.280;2023-12-20T14:10:50;39.87;;;26.67;;
6193;SDS011;3130;41.564;23.280;2023-12-20T14:13:17;43.77;;;29.70;;
6193;SDS011;3130;41.564;23.280;2023-12-20T14:15:48;43.47;;;30.93;;
6193;SDS011;3130;41.564;23.280;2023-12-20T14:18:15;39.30;;;25.67;;
6193;SDS011;3130;41.564;23.280;2023-12-20T14:20:43;39.60;;;26.63;;
6193;SDS011;3130;41.564;23.280;2023-12-20T14:23:12;38.03;;;25.43;;
6193;SDS011;3130;41.564;23.280;2023-12-20T14:25:42;39.67;;;27.17;;
6193;SDS011;3130;41.564;23.280;2023-12-20T14:28:10;38.77;;;26.73;;
6193;SDS011;3130;41.564;23.280;2023-12-20T14:30:39;41.07;;;27.90;;
6193;SDS011;3130;41.564;23.280;2023-12-20T14:33:07;38.73;;;28.80;;
6193;SDS011;3130;41.564;23.280;2023-12-20T14:35:34;42.00;;;28.73;;
6193;SDS011;3130;41.564;23.280;2023-12-20T14:38:01;42.70;;;27.10;;
6193;SDS011;3130;41.564;23.280;2023-12-20T14:40:29;49.57;;;31.37;;
6193;SDS011;3130;41.564;23.280;2023-12-20T14:42:57;48.53;;;29.93;;